LFCR/RDZ METAR and TAF weather

Enter ICAO airport designator
Station Type Date Time Source
LFCR METAR 2022/06/28 10:00 UTC NOAA

LFCR 281000Z AUTO 31008KT 270V350 9999 SCT032 19/12 Q1020 NOSIG


Station Type Date Time Source
LFCR Decoded METAR 2022/06/28 10:00 UTC NOAA

Rodez, France (LFCR) 44-24N 002-29E 580M
Jun 28, 2022 - 06:00 AM EDT / 2022.06.28 1000 UTC
Wind: from the NW (310 degrees) at 9 MPH (8 KT) (direction variable):0
Visibility: greater than 7 mile(s):0
Sky conditions: partly cloudy
Temperature: 66 F (19 C)
Dew Point: 53 F (12 C)
Relative Humidity: 63%
Pressure (altimeter): 30.12 in. Hg (1020 hPa)
ob: LFCR 281000Z AUTO 31008KT 270V350 9999 SCT032 19/12 Q1020 NOSIG
cycle: 10

Station Type Date Time Source
LFCR TAF 2022/06/28 06:22 UTC NOAA

TAF LFCR 280500Z 2806/2906 32008KT CAVOK
BECMG 2820/2822 VRB02KT

Example: see airport list